createdAt,value
2022-10-14T00:01:15.917Z,8.20
2022-10-14T00:03:44.068Z,8.20
2022-10-14T00:06:15.019Z,8.20
2022-10-14T00:08:43.426Z,8.20
2022-10-14T00:11:17.181Z,8.20
2022-10-14T00:13:45.071Z,8.10
2022-10-14T00:16:19.237Z,8.10
2022-10-14T00:18:47.059Z,8.10
2022-10-14T00:21:15.084Z,8.00
2022-10-14T00:23:42.828Z,8.00
2022-10-14T00:26:16.438Z,8.00
2022-10-14T00:28:44.207Z,8.00
2022-10-14T00:31:11.977Z,7.90
2022-10-14T00:33:41.048Z,7.80
2022-10-14T00:36:10.091Z,7.70
2022-10-14T00:38:38.332Z,7.60
2022-10-14T00:41:06.955Z,7.60
2022-10-14T00:43:54.046Z,7.60
2022-10-14T00:46:22.253Z,7.50
2022-10-14T00:48:52.231Z,7.50
2022-10-14T00:51:20.876Z,7.50
2022-10-14T00:53:48.879Z,7.40
2022-10-14T00:56:20.813Z,7.40
2022-10-14T00:58:48.766Z,7.40
2022-10-14T01:01:16.653Z,7.40
2022-10-14T01:03:44.577Z,7.40
2022-10-14T01:06:23.608Z,7.40
2022-10-14T01:08:59.962Z,7.40
2022-10-14T01:11:36.682Z,7.40
2022-10-14T01:14:14.113Z,7.40
2022-10-14T01:16:53.271Z,7.30
2022-10-14T01:19:41.413Z,7.30
2022-10-14T01:22:22.060Z,7.30
2022-10-14T01:25:03.743Z,7.40
2022-10-14T01:27:54.856Z,7.40
2022-10-14T01:30:24.813Z,7.40
2022-10-14T01:33:01.950Z,7.40
2022-10-14T01:35:39.211Z,7.40
2022-10-14T01:38:15.258Z,7.30
2022-10-14T01:40:47.618Z,7.20
2022-10-14T01:43:16.796Z,7.10
2022-10-14T01:45:48.734Z,7.00
2022-10-14T01:48:21.233Z,7.00
2022-10-14T01:50:52.903Z,7.00
2022-10-14T01:53:24.339Z,7.00
2022-10-14T01:55:55.978Z,7.10
2022-10-14T01:58:27.243Z,7.10
2022-10-14T02:00:57.403Z,7.20
2022-10-14T02:03:25.073Z,7.20
2022-10-14T02:05:58.402Z,7.30
2022-10-14T02:08:40.589Z,7.40
2022-10-14T02:11:12.215Z,7.50
2022-10-14T02:13:51.214Z,7.50
2022-10-14T02:16:27.980Z,7.60
2022-10-14T02:19:03.481Z,7.80
2022-10-14T02:21:36.005Z,7.90
2022-10-14T02:24:09.352Z,7.90
2022-10-14T02:26:39.093Z,7.90
2022-10-14T02:29:07.274Z,7.90
2022-10-14T02:31:40.755Z,7.90
2022-10-14T02:34:13.551Z,7.90
2022-10-14T02:36:42.788Z,8.10
2022-10-14T02:39:14.292Z,8.20
2022-10-14T02:41:42.373Z,8.20
2022-10-14T02:44:10.075Z,8.30
2022-10-14T02:46:41.254Z,8.30
2022-10-14T02:49:08.956Z,8.30
2022-10-14T02:51:36.649Z,8.30
2022-10-14T02:54:04.488Z,8.40
2022-10-14T02:56:32.189Z,8.40
2022-10-14T02:58:59.863Z,8.50
2022-10-14T03:01:27.682Z,8.50
2022-10-14T03:03:56.752Z,8.40
2022-10-14T03:06:25.210Z,8.60
2022-10-14T03:08:52.888Z,8.60
2022-10-14T03:11:20.575Z,8.60
2022-10-14T03:13:48.283Z,8.70
2022-10-14T03:16:15.964Z,8.70
2022-10-14T03:18:43.839Z,8.70
2022-10-14T03:21:12.840Z,8.60
2022-10-14T03:23:40.531Z,8.70
2022-10-14T03:26:11.897Z,8.70
2022-10-14T03:28:41.735Z,8.70
2022-10-14T03:31:09.471Z,8.80
2022-10-14T03:33:37.246Z,8.80
2022-10-14T03:36:05.334Z,8.90
2022-10-14T03:38:34.356Z,8.90
2022-10-14T03:41:02.054Z,8.90
2022-10-14T03:43:29.733Z,8.90
2022-10-14T03:45:57.519Z,8.90
2022-10-14T03:48:25.365Z,8.90
2022-10-14T03:50:53.170Z,8.80
2022-10-14T03:53:20.893Z,8.70
2022-10-14T03:55:49.914Z,8.60
2022-10-14T03:58:17.580Z,8.60
2022-10-14T04:00:45.561Z,8.50
2022-10-14T04:03:13.273Z,8.40
2022-10-14T04:05:41.052Z,8.40
2022-10-14T04:08:09.488Z,8.30
2022-10-14T04:10:37.221Z,8.20
2022-10-14T04:13:06.213Z,8.20
2022-10-14T04:15:36.098Z,8.20
2022-10-14T04:18:03.903Z,8.10
2022-10-14T04:20:31.610Z,8.10
2022-10-14T04:23:00.540Z,8.10
2022-10-14T04:25:28.281Z,8.10
2022-10-14T04:27:55.962Z,8.20
2022-10-14T04:30:25.322Z,8.20
2022-10-14T04:32:53.059Z,8.30
2022-10-14T04:35:20.752Z,8.30
2022-10-14T04:37:48.444Z,8.30
2022-10-14T04:40:16.177Z,8.30
2022-10-14T04:42:43.839Z,8.20
2022-10-14T04:45:11.818Z,8.20
2022-10-14T04:47:43.893Z,8.20
2022-10-14T04:50:15.525Z,8.30
2022-10-14T04:52:43.226Z,8.30
2022-10-14T04:55:11.282Z,8.40
2022-10-14T04:57:43.542Z,8.40
2022-10-14T05:00:13.268Z,8.40
2022-10-14T05:02:42.283Z,8.30
2022-10-14T05:05:10.489Z,8.30
2022-10-14T05:07:38.377Z,8.40
2022-10-14T05:10:06.795Z,8.40
2022-10-14T05:12:34.738Z,8.40
2022-10-14T05:15:03.395Z,8.40
2022-10-14T05:17:31.086Z,8.50
2022-10-14T05:20:00.459Z,8.60
2022-10-14T05:22:28.177Z,8.60
2022-10-14T05:24:55.885Z,8.60
2022-10-14T05:27:23.680Z,8.60
2022-10-14T05:29:51.382Z,8.70
2022-10-14T05:32:19.329Z,8.70
2022-10-14T05:34:47.230Z,8.70
2022-10-14T05:37:16.236Z,8.70
2022-10-14T05:39:43.904Z,8.70
2022-10-14T05:42:11.612Z,8.80
2022-10-14T05:44:39.294Z,8.80
2022-10-14T05:47:07.044Z,8.80
2022-10-14T05:49:34.728Z,8.80
2022-10-14T05:52:02.529Z,8.80
2022-10-14T05:54:31.565Z,8.80
2022-10-14T05:56:59.270Z,8.90
2022-10-14T05:59:29.628Z,9.00
2022-10-14T06:01:57.596Z,9.00
2022-10-14T06:04:25.290Z,9.10
2022-10-14T06:06:53.119Z,9.20
2022-10-14T06:09:20.951Z,9.30
2022-10-14T06:11:50.070Z,9.30
2022-10-14T06:14:17.783Z,9.40
2022-10-14T06:16:45.481Z,9.50
2022-10-14T06:19:13.180Z,9.50
2022-10-14T06:21:40.986Z,9.50
2022-10-14T06:24:09.185Z,9.50
2022-10-14T06:26:36.895Z,9.60
2022-10-14T06:29:06.051Z,9.60
2022-10-14T06:31:33.929Z,9.60
2022-10-14T06:34:05.060Z,9.70
2022-10-14T06:36:33.214Z,9.70
2022-10-14T06:39:00.905Z,9.80
2022-10-14T06:41:28.674Z,9.90
2022-10-14T06:43:56.449Z,10.00
2022-10-14T06:46:25.654Z,10.10
2022-10-14T06:48:53.354Z,10.20
2022-10-14T06:51:21.597Z,10.40
2022-10-14T06:53:49.295Z,10.40
2022-10-14T06:56:17.026Z,10.50
2022-10-14T06:58:44.726Z,10.70
2022-10-14T07:01:12.607Z,10.80
2022-10-14T07:03:41.664Z,10.90
2022-10-14T07:06:10.094Z,10.90
2022-10-14T07:08:37.856Z,11.00
2022-10-14T07:11:06.387Z,11.10
2022-10-14T07:13:35.187Z,11.10
2022-10-14T07:16:03.222Z,11.10
2022-10-14T07:18:31.480Z,11.10
2022-10-14T07:21:04.437Z,11.20
2022-10-14T07:23:32.366Z,11.30
2022-10-14T07:26:01.373Z,11.50
2022-10-14T07:28:29.302Z,11.50
2022-10-14T07:31:01.397Z,11.60
2022-10-14T07:33:29.190Z,11.60
2022-10-14T07:35:56.944Z,11.80
2022-10-14T07:38:25.964Z,11.90
2022-10-14T07:40:58.624Z,12.10
2022-10-14T07:43:26.459Z,12.30
2022-10-14T07:46:00.265Z,12.40
2022-10-14T07:48:38.528Z,12.70
2022-10-14T07:51:12.897Z,12.90
2022-10-14T07:53:41.901Z,13.10
2022-10-14T07:56:09.609Z,13.40
2022-10-14T07:58:39.977Z,13.50
2022-10-14T08:01:12.467Z,13.70
2022-10-14T08:03:40.160Z,13.70
2022-10-14T08:06:08.273Z,13.70
2022-10-14T08:08:36.127Z,13.60
2022-10-14T08:11:08.682Z,13.60
2022-10-14T08:13:40.569Z,13.50
2022-10-14T08:16:16.548Z,13.70
2022-10-14T08:18:44.441Z,14.10
2022-10-14T08:21:12.455Z,14.20
2022-10-14T08:23:40.349Z,14.30
2022-10-14T08:26:19.734Z,14.60
2022-10-14T08:28:47.561Z,14.70
2022-10-14T08:31:15.364Z,15.00
2022-10-14T08:33:43.100Z,15.20
2022-10-14T08:36:11.135Z,15.50
2022-10-14T08:38:39.019Z,15.60
2022-10-14T08:41:24.287Z,15.80
2022-10-14T08:44:02.364Z,16.00
2022-10-14T08:46:37.845Z,16.40
2022-10-14T08:49:12.572Z,17.10
2022-10-14T08:51:43.929Z,17.90
2022-10-14T08:54:16.977Z,18.60
2022-10-14T08:56:46.281Z,19.00
2022-10-14T08:59:16.738Z,18.80
2022-10-14T09:01:51.005Z,18.80
2022-10-14T09:04:18.849Z,18.90
2022-10-14T09:06:48.873Z,18.90
2022-10-14T09:09:23.211Z,19.10
2022-10-14T09:11:55.557Z,19.30
2022-10-14T09:14:26.907Z,18.90
2022-10-14T09:16:58.969Z,18.60
2022-10-14T09:19:32.574Z,18.10
2022-10-14T09:22:02.084Z,17.90
2022-10-14T09:24:35.479Z,18.50
2022-10-14T09:27:09.842Z,19.10
2022-10-14T09:29:43.883Z,20.10
2022-10-14T09:32:16.404Z,20.70
2022-10-14T09:34:48.629Z,22.20
2022-10-14T09:37:26.150Z,23.30
2022-10-14T09:39:56.866Z,24.90
2022-10-14T09:42:29.223Z,26.00
2022-10-14T09:45:09.967Z,26.10
2022-10-14T09:47:46.592Z,26.00
2022-10-14T09:50:24.868Z,25.00
2022-10-14T09:52:55.957Z,25.00
2022-10-14T09:55:25.180Z,26.80
2022-10-14T09:58:05.300Z,28.50
2022-10-14T10:00:35.351Z,29.20
2022-10-14T10:03:03.112Z,28.50
2022-10-14T10:05:33.272Z,28.20
2022-10-14T10:08:03.477Z,28.30
2022-10-14T10:10:32.182Z,28.80
2022-10-14T10:13:01.634Z,28.30
2022-10-14T10:15:29.867Z,27.70
2022-10-14T10:17:58.125Z,27.70
2022-10-14T10:20:33.158Z,28.00
2022-10-14T10:23:25.002Z,28.50
2022-10-14T10:25:53.165Z,28.10
2022-10-14T10:28:31.899Z,25.80
2022-10-14T10:31:10.164Z,24.30
2022-10-14T10:33:45.307Z,23.10
2022-10-14T10:36:21.982Z,22.10
2022-10-14T10:38:59.966Z,21.20
2022-10-14T10:41:46.751Z,20.50
2022-10-14T10:44:28.675Z,20.10
2022-10-14T10:47:13.389Z,19.70
2022-10-14T10:49:59.158Z,19.80
2022-10-14T10:52:35.640Z,19.80
2022-10-14T10:55:10.242Z,19.50
2022-10-14T10:57:50.696Z,19.30
2022-10-14T11:03:01.459Z,19.00
2022-10-14T11:05:51.518Z,18.90
2022-10-14T11:08:57.851Z,18.70
2022-10-14T11:11:46.622Z,18.50
2022-10-14T11:14:39.784Z,18.40
2022-10-14T11:17:15.586Z,18.20
2022-10-14T11:19:51.209Z,18.10
2022-10-14T11:22:40.009Z,18.00
2022-10-14T11:25:19.741Z,18.00
2022-10-14T11:27:53.164Z,18.00
2022-10-14T11:30:23.255Z,18.00
2022-10-14T11:33:07.458Z,18.20
2022-10-14T11:35:48.143Z,18.50
2022-10-14T11:38:31.274Z,18.80
2022-10-14T11:41:04.941Z,19.00
2022-10-14T11:43:42.405Z,19.20
2022-10-14T11:46:13.748Z,19.20
2022-10-14T11:48:46.872Z,19.10
2022-10-14T11:51:20.249Z,19.10
2022-10-14T11:53:59.321Z,19.10
2022-10-14T11:56:36.483Z,19.10
2022-10-14T11:59:22.012Z,19.00
2022-10-14T12:01:53.240Z,19.10
2022-10-14T12:04:28.784Z,19.10
2022-10-14T12:07:03.363Z,19.10
2022-10-14T12:09:39.304Z,19.10
2022-10-14T12:12:10.409Z,19.10
2022-10-14T12:14:42.568Z,19.00
2022-10-14T12:17:18.995Z,19.00
2022-10-14T12:19:48.677Z,18.80
2022-10-14T12:22:19.987Z,18.70
2022-10-14T12:24:51.483Z,18.40
2022-10-14T12:27:20.842Z,18.50
2022-10-14T12:29:50.782Z,18.40
2022-10-14T12:32:21.943Z,18.30
2022-10-14T12:34:53.700Z,18.30
2022-10-14T12:37:45.255Z,18.30
2022-10-14T12:40:30.182Z,18.30
2022-10-14T12:43:04.570Z,18.40
2022-10-14T12:45:35.324Z,18.40
2022-10-14T12:48:18.717Z,18.50
2022-10-14T12:50:49.410Z,18.60
2022-10-14T12:53:22.334Z,18.60
2022-10-14T12:55:52.907Z,18.60
2022-10-14T12:58:26.845Z,18.70
2022-10-14T13:00:58.571Z,18.90
2022-10-14T13:03:28.790Z,19.10
2022-10-14T13:06:29.431Z,19.20
2022-10-14T13:09:20.572Z,19.30
2022-10-14T13:12:32.744Z,19.30
2022-10-14T13:15:02.095Z,19.20
2022-10-14T13:17:44.173Z,19.20
2022-10-14T13:20:45.383Z,19.00
2022-10-14T13:23:33.622Z,19.00
2022-10-14T13:26:13.041Z,19.20
2022-10-14T13:28:47.244Z,19.30
2022-10-14T13:31:23.953Z,19.10
2022-10-14T13:33:57.753Z,18.90
2022-10-14T13:36:33.841Z,18.80
2022-10-14T13:39:04.038Z,18.60
2022-10-14T13:41:34.576Z,18.50
2022-10-14T13:44:02.889Z,18.40
2022-10-14T13:46:34.749Z,18.30
2022-10-14T13:49:06.342Z,18.10
2022-10-14T13:51:45.754Z,18.00
2022-10-14T13:54:20.583Z,18.00
2022-10-14T13:57:38.262Z,18.00
2022-10-14T14:00:28.134Z,18.00
2022-10-14T14:02:36.481Z,18.10
2022-10-14T14:05:04.336Z,18.00
2022-10-14T14:08:08.404Z,18.00
2022-10-14T14:10:26.645Z,17.90
2022-10-14T14:12:54.525Z,17.80
2022-10-14T14:15:25.645Z,17.70
2022-10-14T14:17:53.954Z,17.50
2022-10-14T14:20:24.210Z,17.40
2022-10-14T14:22:52.088Z,17.40
2022-10-14T14:25:40.269Z,17.30
2022-10-14T14:28:15.870Z,17.30
2022-10-14T14:30:54.706Z,17.30
2022-10-14T14:33:29.553Z,17.40
2022-10-14T14:35:59.507Z,17.40
2022-10-14T14:38:29.742Z,17.40
2022-10-14T14:41:07.262Z,17.30
2022-10-14T14:43:40.822Z,17.30
2022-10-14T14:46:19.276Z,17.20
2022-10-14T14:48:54.409Z,17.10
2022-10-14T14:51:23.072Z,17.10
2022-10-14T14:53:54.669Z,17.10
2022-10-14T14:56:29.961Z,17.10
2022-10-14T14:59:03.548Z,17.10
2022-10-14T15:01:31.546Z,17.10
2022-10-14T15:04:12.231Z,17.10
2022-10-14T15:06:51.383Z,17.10
2022-10-14T15:09:23.663Z,17.10
2022-10-14T15:11:54.997Z,17.20
2022-10-14T15:14:33.767Z,17.30
2022-10-14T15:17:05.497Z,17.30
2022-10-14T15:19:38.773Z,17.20
2022-10-14T15:22:28.689Z,17.10
2022-10-14T15:24:59.837Z,16.90
2022-10-14T15:27:44.247Z,16.80
2022-10-14T15:30:31.670Z,16.60
2022-10-14T15:33:02.009Z,16.50
2022-10-14T15:35:30.657Z,16.30
2022-10-14T15:37:58.524Z,16.10
2022-10-14T15:40:29.833Z,16.00
2022-10-14T15:42:59.672Z,15.80
2022-10-14T15:45:27.644Z,15.70
2022-10-14T15:47:59.462Z,15.60
2022-10-14T15:50:27.441Z,15.50
2022-10-14T15:52:56.818Z,15.40
2022-10-14T15:55:26.594Z,15.20
2022-10-14T15:57:54.678Z,15.00
2022-10-14T16:00:26.067Z,14.90
2022-10-14T16:02:58.487Z,14.80
2022-10-14T16:05:26.821Z,14.70
2022-10-14T16:07:54.522Z,14.60
2022-10-14T16:10:24.680Z,14.50
2022-10-14T16:12:52.774Z,14.40
2022-10-14T16:15:39.796Z,14.30
2022-10-14T16:18:07.582Z,14.30
2022-10-14T16:20:36.092Z,14.20
2022-10-14T16:23:04.628Z,14.10
2022-10-14T16:25:36.087Z,14.00
2022-10-14T16:28:09.233Z,13.90
2022-10-14T16:30:48.648Z,13.90
2022-10-14T16:33:16.876Z,13.90
2022-10-14T16:35:45.636Z,13.80
2022-10-14T16:38:13.732Z,13.80
2022-10-14T16:40:41.462Z,13.70
2022-10-14T16:43:10.438Z,13.60
2022-10-14T16:45:39.489Z,13.50
2022-10-14T16:48:07.262Z,13.40
2022-10-14T16:50:35.012Z,13.30
2022-10-14T16:53:20.413Z,13.20
2022-10-14T16:55:48.232Z,13.20
2022-10-14T16:58:16.028Z,13.20
2022-10-14T17:00:45.230Z,13.20
2022-10-14T17:03:12.945Z,13.10
2022-10-14T17:05:40.834Z,13.00
2022-10-14T17:08:08.684Z,13.00
2022-10-14T17:10:36.482Z,13.00
2022-10-14T17:13:04.254Z,13.00
2022-10-14T17:15:32.052Z,12.90
2022-10-14T17:18:01.069Z,12.80
2022-10-14T17:20:28.830Z,12.80
2022-10-14T17:22:56.651Z,12.80
2022-10-14T17:25:24.349Z,12.90
2022-10-14T17:27:52.237Z,12.90
2022-10-14T17:30:20.003Z,13.00
2022-10-14T17:32:47.724Z,13.00
2022-10-14T17:35:16.961Z,13.10
2022-10-14T17:37:45.271Z,13.10
2022-10-14T17:40:13.347Z,13.00
2022-10-14T17:42:41.812Z,13.00
2022-10-14T17:45:10.960Z,13.00
2022-10-14T17:47:38.629Z,13.00
2022-10-14T17:50:08.873Z,13.00
2022-10-14T17:52:37.961Z,12.90
2022-10-14T17:55:06.638Z,12.90
2022-10-14T17:57:34.398Z,12.90
2022-10-14T18:00:02.124Z,13.00
2022-10-14T18:02:29.902Z,13.10
2022-10-14T18:04:57.664Z,13.20
2022-10-14T18:07:25.591Z,13.30
2022-10-14T18:09:55.007Z,13.30
2022-10-14T18:12:22.750Z,13.40
2022-10-14T18:14:50.436Z,13.40
2022-10-14T18:17:18.535Z,13.40
2022-10-14T18:19:51.857Z,13.30
2022-10-14T18:22:19.943Z,13.30
2022-10-14T18:24:47.934Z,13.30
2022-10-14T18:27:16.953Z,13.30
2022-10-14T18:29:44.654Z,13.20
2022-10-14T18:32:12.392Z,13.30
2022-10-14T18:34:40.073Z,13.40
2022-10-14T18:37:07.827Z,13.40
2022-10-14T18:39:35.628Z,13.30
2022-10-14T18:42:04.103Z,13.20
2022-10-14T18:44:33.152Z,13.20
2022-10-14T18:47:00.957Z,13.20
2022-10-14T18:49:28.747Z,13.10
2022-10-14T18:51:56.509Z,13.20
2022-10-14T18:54:24.907Z,13.30
2022-10-14T18:56:52.958Z,13.30
2022-10-14T18:59:22.980Z,13.40
2022-10-14T19:01:53.105Z,13.30
2022-10-14T19:04:23.274Z,13.20
2022-10-14T19:06:51.286Z,13.20
2022-10-14T19:09:21.652Z,13.10
2022-10-14T19:11:51.500Z,13.10
2022-10-14T19:14:19.321Z,13.20
2022-10-14T19:16:47.541Z,13.20
2022-10-14T19:19:18.720Z,13.30
2022-10-14T19:21:48.510Z,13.30
2022-10-14T19:24:16.547Z,13.30
2022-10-14T19:26:46.318Z,13.40
2022-10-14T19:29:15.564Z,13.50
2022-10-14T19:31:44.379Z,13.30
2022-10-14T19:34:15.513Z,13.40
2022-10-14T19:36:45.608Z,13.50
2022-10-14T19:39:15.337Z,13.50
2022-10-14T19:41:44.761Z,13.40
2022-10-14T19:44:13.453Z,13.40
2022-10-14T19:46:41.632Z,13.50
2022-10-14T19:49:11.812Z,13.50
2022-10-14T19:51:39.749Z,13.50
2022-10-14T19:54:10.110Z,13.50
2022-10-14T19:56:37.852Z,13.40
2022-10-14T19:59:05.545Z,13.40
2022-10-14T20:01:33.357Z,13.40
2022-10-14T20:04:02.088Z,13.40
2022-10-14T20:06:33.212Z,13.50
2022-10-14T20:09:01.410Z,13.50
2022-10-14T20:11:30.448Z,13.50
2022-10-14T20:13:58.492Z,13.50
2022-10-14T20:16:27.237Z,13.60
2022-10-14T20:18:55.244Z,13.60
2022-10-14T20:21:22.957Z,13.60
2022-10-14T20:23:50.665Z,13.60
2022-10-14T20:26:21.393Z,13.70
2022-10-14T20:28:51.269Z,13.70
2022-10-14T20:31:20.680Z,13.70
2022-10-14T20:33:48.881Z,13.60
2022-10-14T20:36:19.416Z,13.70
2022-10-14T20:38:48.203Z,13.60
2022-10-14T20:41:18.215Z,13.60
2022-10-14T20:43:47.481Z,13.40
2022-10-14T20:46:16.563Z,13.40
2022-10-14T20:48:44.572Z,13.30
2022-10-14T20:51:14.177Z,13.30
2022-10-14T20:53:42.153Z,13.30
2022-10-14T20:56:12.112Z,13.20
2022-10-14T20:58:40.213Z,13.20
2022-10-14T21:01:09.428Z,13.20
2022-10-14T21:03:38.763Z,13.20
2022-10-14T21:06:08.924Z,13.20
2022-10-14T21:08:37.593Z,13.10
2022-10-14T21:11:10.476Z,13.10
2022-10-14T21:13:41.739Z,13.10
2022-10-14T21:16:17.739Z,13.00
2022-10-14T21:18:55.202Z,13.10
2022-10-14T21:21:26.584Z,13.10
2022-10-14T21:23:54.512Z,13.10
2022-10-14T21:26:22.676Z,13.10
2022-10-14T21:28:50.575Z,13.20
2022-10-14T21:31:19.565Z,13.10
2022-10-14T21:33:49.182Z,13.20
2022-10-14T21:36:17.361Z,13.20
2022-10-14T21:38:45.155Z,13.20
2022-10-14T21:41:12.977Z,13.20
2022-10-14T21:43:41.518Z,13.20
2022-10-14T21:46:10.937Z,13.10
2022-10-14T21:48:38.947Z,13.10
2022-10-14T21:51:11.103Z,13.00
2022-10-14T21:53:40.404Z,13.10
2022-10-14T21:56:08.931Z,13.10
2022-10-14T21:58:36.894Z,13.10
2022-10-14T22:01:07.961Z,13.10
2022-10-14T22:03:36.283Z,13.20
2022-10-14T22:08:42.250Z,13.20
2022-10-14T22:11:16.778Z,13.20
2022-10-14T22:13:44.637Z,13.20
2022-10-14T22:16:13.542Z,13.20
2022-10-14T22:18:43.519Z,13.20
2022-10-14T22:21:11.969Z,13.10
2022-10-14T22:23:41.029Z,13.10
2022-10-14T22:26:10.322Z,13.10
2022-10-14T22:28:38.301Z,13.20
2022-10-14T22:31:06.927Z,13.10
2022-10-14T22:33:36.091Z,13.10
2022-10-14T22:36:11.310Z,13.10
2022-10-14T22:38:41.754Z,13.20
2022-10-14T22:41:11.076Z,13.20
2022-10-14T22:43:39.465Z,13.20
2022-10-14T22:46:08.902Z,13.20
2022-10-14T22:48:36.970Z,13.20
2022-10-14T22:51:05.962Z,13.20
2022-10-14T22:53:34.146Z,13.30
2022-10-14T22:56:03.981Z,13.30
2022-10-14T22:58:31.670Z,13.30
2022-10-14T23:01:06.478Z,13.30
2022-10-14T23:03:34.660Z,13.30
2022-10-14T23:06:02.896Z,13.30
2022-10-14T23:08:31.062Z,13.30
2022-10-14T23:10:59.062Z,13.40
2022-10-14T23:13:28.343Z,13.40
2022-10-14T23:15:56.733Z,13.40
2022-10-14T23:18:24.636Z,13.40
2022-10-14T23:20:52.343Z,13.50
2022-10-14T23:23:20.328Z,13.50
2022-10-14T23:25:48.042Z,13.40
2022-10-14T23:28:15.943Z,13.50
2022-10-14T23:30:45.000Z,13.50
2022-10-14T23:33:12.696Z,13.50
2022-10-14T23:35:40.488Z,13.60
2022-10-14T23:38:08.198Z,13.50
2022-10-14T23:40:35.875Z,13.50
2022-10-14T23:43:03.620Z,13.50
2022-10-14T23:45:31.401Z,13.50
2022-10-14T23:48:00.395Z,13.40
2022-10-14T23:50:28.089Z,13.40
2022-10-14T23:52:55.761Z,13.50
2022-10-14T23:55:23.436Z,13.50
2022-10-14T23:57:51.100Z,13.50
